Latest Weather Observations for Nambour

IDQ60801

Issued at 3:22 pm EST Monday 19 November 2018 (issued every 10 minutes, with the page automatically refreshed every 10 minutes)

About weather observations | Map of weather stations | Latest weather observations for QLD | Other Formats
Station Details ID: 040988 Name: NAMBOUR DAFF - HILLSIDE Lat: -26.64 Lon: 152.94 Height: 53.24 m
Data from the previous 72 hours. | See also: Recent months at Nambour
Date/Time
EST
Temp
°C
App
Temp
°C
Dew
Point
°C
Rel
Hum
%
Delta-T
°C
Wind Press
QNH
hPa
Press
MSL
hPa
Rain since
9am
mm
Dir  Spd
km/h
Gust
km/h
Spd
kts
Gust
kts
19/03:00pm 23.2 22.3 13.7 55 5.5 ENE 11 22 6 12 1016.7 1016.5 0.0
19/02:30pm 23.7 22.2 13.0 51 6.2 ENE 13 26 7 14 1016.9 1016.7 0.0
19/02:00pm 24.3 23.4 12.6 48 6.7 E 9 15 5 8 1017.2 1017.0 0.0
19/01:30pm 23.7 22.6 12.0 48 6.6 ESE 9 15 5 8 1017.6 1017.4 0.0
19/01:00pm 23.7 23.3 13.0 51 6.2 E 7 19 4 10 1017.8 1017.6 0.0
19/12:30pm 23.3 21.7 11.7 48 6.5 E 11 28 6 15 1018.0 1017.8 0.0
19/12:00pm 24.1 22.5 11.4 45 7.1 ENE 11 20 6 11 1018.4 1018.2 0.0
19/11:30am 24.1 22.6 10.7 43 7.5 E 9 20 5 11 1018.6 1018.4 0.0
19/11:00am 25.1 23.0 11.3 42 7.8 ENE 13 24 7 13 1018.9 1018.7 0.0
19/10:30am 24.6 22.7 10.5 41 7.8 ESE 11 20 6 11 1019.1 1018.9 0.0
19/10:00am 24.8 22.3 11.0 42 7.7 ENE 15 24 8 13 1019.4 1019.2 0.0
19/09:30am 24.7 22.6 11.3 43 7.6 E 13 22 7 12 1019.7 1019.5 0.0
19/09:00am 23.8 22.4 12.1 48 6.6 ENE 11 20 6 11 1019.8 1019.6 3.4
19/08:30am 23.6 22.5 13.2 52 6.0 ENE 11 20 6 11 1019.6 1019.4 3.4
19/08:00am 23.0 22.9 13.8 56 5.4 SE 7 13 4 7 1019.6 1019.4 3.4
19/07:30am 22.1 22.7 14.2 61 4.6 ENE 4 11 2 6 1019.7 1019.5 3.4
19/07:00am 21.3 23.6 16.7 75 2.8 CALM 0 2 0 1 1019.5 1019.3 3.4
19/06:30am 18.6 20.8 16.4 87 1.3 CALM 0 0 0 0 1019.3 1019.1 3.4
19/06:00am 17.7 18.8 15.7 88 1.2 SW 4 4 2 2 1019.0 1018.8 3.4
19/05:30am 17.6 18.4 14.9 84 1.6 W 4 7 2 4 1018.7 1018.5 3.4
19/05:00am 16.8 18.5 15.2 90 0.9 CALM 0 2 0 1 1018.6 1018.4 3.4
19/04:30am 16.6 18.1 14.6 88 1.2 CALM 0 0 0 0 1018.1 1017.9 3.2
19/04:00am 17.3 18.9 14.8 85 1.4 CALM 0 0 0 0 1018.0 1017.8 3.2
19/03:30am 17.6 18.7 15.6 88 1.2 SW 4 11 2 6 1018.0 1017.8 3.2
19/03:00am 17.4 18.9 15.6 89 1.1 WSW 2 4 1 2 1017.7 1017.5 3.2
19/02:30am 17.8 18.8 15.4 86 1.4 WSW 4 9 2 5 1018.0 1017.8 3.2
19/02:00am 17.4 18.5 14.7 84 1.6 SW 2 7 1 4 1018.0 1017.8 3.0
19/01:30am 17.6 19.6 15.9 90 1.0 CALM 0 0 0 0 1018.0 1017.8 3.0
19/01:00am 17.6 19.6 15.9 90 1.0 CALM 0 0 0 0 1018.4 1018.2 3.0
19/12:30am 17.7 19.3 15.9 89 1.1 SW 2 6 1 3 1019.1 1018.9 3.0
19/12:00am 18.2 20.0 16.4 89 1.1 SW 2 6 1 3 1019.5 1019.3 3.0
 
Date/Time
EST
Temp
°C
App
Temp
°C
Dew
Point
°C
Rel
Hum
%
Delta-T
°C
Wind Press
QNH
hPa
Press
MSL
hPa
Rain since
9am
mm
Dir  Spd
km/h
Gust
km/h
Spd
kts
Gust
kts
18/11:30pm 18.3 19.9 16.8 91 0.9 SW 4 6 2 3 1019.8 1019.6 3.0
18/11:00pm 18.4 19.9 16.6 89 1.1 WSW 4 6 2 3 1019.7 1019.5 3.0
18/10:30pm 19.0 21.4 17.0 88 1.2 CALM 0 6 0 3 1019.8 1019.6 2.2
18/10:00pm 18.8 20.8 16.9 89 1.1 WSW 2 7 1 4 1019.4 1019.2 2.2
18/09:30pm 18.8 20.7 16.8 88 1.2 SSW 2 6 1 3 1019.3 1019.1 2.2
18/09:00pm 18.9 20.1 16.9 88 1.2 SW 6 6 3 3 1019.3 1019.1 2.2
18/08:30pm 19.6 19.8 15.7 78 2.3 ESE 9 15 5 8 1019.5 1019.3 2.0
18/08:00pm 20.4 21.5 14.5 69 3.4 S 2 6 1 3 1018.7 1018.5 1.8
18/07:30pm 21.1 21.6 14.0 64 4.1 ESE 4 9 2 5 1018.6 1018.4 1.8
18/07:00pm 21.2 21.9 14.4 65 4.0 SE 4 9 2 5 1018.3 1018.1 1.8
18/06:30pm 21.6 21.8 14.3 63 4.3 ESE 6 15 3 8 1018.1 1017.9 1.8
18/06:00pm 21.8 21.4 14.2 62 4.4 E 9 17 5 9 1017.7 1017.5 1.8
18/05:30pm 21.9 22.0 14.5 63 4.4 E 7 19 4 10 1017.7 1017.5 1.8
18/05:00pm 22.3 21.9 14.2 60 4.7 E 9 20 5 11 1017.1 1016.9 1.8
18/04:30pm 22.5 21.6 14.9 62 4.5 E 13 26 7 14 1017.1 1016.9 1.8
18/04:00pm 23.2 22.2 14.7 58 5.0 ENE 13 24 7 13 1017.0 1016.8 1.8
18/03:30pm 22.6 23.3 15.7 65 4.2 ENE 6 9 3 5 1017.3 1017.1 1.8
18/03:00pm 22.8 22.9 15.6 64 4.3 E 9 20 5 11 1017.4 1017.2 1.8
18/02:30pm 22.3 23.7 16.3 69 3.6 E 4 15 2 8 1017.5 1017.3 1.8
18/02:00pm 22.7 23.8 17.2 71 3.4 E 7 15 4 8 1017.5 1017.3 1.8
18/01:30pm 21.8 23.9 18.0 79 2.4 SW 4 7 2 4 1017.8 1017.6 1.8
18/01:00pm 21.2 22.3 17.0 77 2.6 ESE 7 15 4 8 1018.2 1018.0 1.6
18/12:30pm 22.4 25.1 19.4 83 1.9 S 4 9 2 5 1018.2 1018.0 1.4
18/12:00pm 21.1 23.6 18.1 83 1.9 WSW 2 7 1 4 1018.6 1018.4 1.4
18/11:30am 21.6 23.3 18.4 82 2.0 WSW 7 19 4 10 1018.4 1018.2 0.8
18/11:00am 21.5 22.9 17.9 80 2.2 WSW 7 13 4 7 1018.5 1018.3 0.8
18/10:30am 21.5 22.2 16.2 72 3.2 SE 7 28 4 15 1018.4 1018.2 0.4
18/10:00am 22.5 24.2 18.5 78 2.5 ENE 7 15 4 8 1018.3 1018.1 0.2
18/09:30am 23.6 24.7 18.0 71 3.5 ENE 9 19 5 10 1018.3 1018.1 0.0
18/09:00am 22.6 23.8 16.9 70 3.5 ESE 6 19 3 10 1018.2 1018.0 27.2
18/08:30am 22.5 23.7 16.8 70 3.5 W 6 13 3 7 1018.2 1018.0 27.2
18/08:00am 22.2 23.5 17.1 73 3.1 SSW 6 15 3 8 1017.9 1017.7 27.2
18/07:30am 21.7 23.5 17.3 76 2.7 N 4 13 2 7 1017.6 1017.4 27.2
18/07:00am 20.6 22.2 16.8 79 2.3 WNW 4 7 2 4 1017.3 1017.1 27.2
18/06:30am 20.2 22.0 16.4 79 2.3 NW 2 6 1 3 1017.1 1016.9 27.0
18/06:00am 20.0 21.8 16.4 80 2.2 WSW 2 6 1 3 1016.9 1016.7 27.0
18/05:30am 19.9 21.8 16.7 82 1.9 WSW 2 6 1 3 1016.6 1016.4 27.0
18/05:00am 19.6 21.6 17.0 85 1.6 WSW 2 6 1 3 1016.2 1016.0 27.0
18/04:30am 19.4 22.0 17.4 88 1.2 CALM 0 4 0 2 1015.7 1015.5 27.0
18/04:00am 19.3 21.5 17.4 89 1.2 WSW 2 7 1 4 1015.4 1015.2 27.0
18/03:30am 19.3 21.6 17.8 91 0.9 ENE 2 6 1 3 1015.4 1015.2 27.0
18/03:00am 19.2 22.0 17.9 92 0.8 CALM 0 0 0 0 1015.3 1015.1 27.0
18/02:30am 19.3 22.0 17.8 91 0.9 CALM 0 6 0 3 1015.1 1014.9 27.0
18/02:00am 19.2 21.3 18.0 93 0.7 SW 4 9 2 5 1015.2 1015.0 27.0
18/01:30am 18.7 21.3 17.5 93 0.7 CALM 0 0 0 0 1015.1 1014.9 27.0
18/01:00am 18.7 20.5 17.5 93 0.7 WSW 4 6 2 3 1015.4 1015.2 27.0
18/12:30am 18.1 20.5 17.0 93 0.7 CALM 0 0 0 0 1015.6 1015.4 27.0
18/12:00am 18.3 20.7 17.1 93 0.7 CALM 0 0 0 0 1015.8 1015.6 27.0
 
Date/Time
EST
Temp
°C
App
Temp
°C
Dew
Point
°C
Rel
Hum
%
Delta-T
°C
Wind Press
QNH
hPa
Press
MSL
hPa
Rain since
9am
mm
Dir  Spd
km/h
Gust
km/h
Spd
kts
Gust
kts
17/11:30pm 18.1 20.1 17.0 93 0.7 SW 2 6 1 3 1016.4 1016.2 27.0
17/11:00pm 17.9 20.1 16.6 92 0.8 CALM 0 0 0 0 1016.6 1016.4 27.0
17/10:30pm 17.7 19.9 16.4 92 0.8 CALM 0 0 0 0 1016.8 1016.6 27.0
17/10:00pm 17.8 19.2 16.5 92 0.8 WSW 4 6 2 3 1017.1 1016.9 27.0
17/09:30pm 17.9 20.1 16.4 91 0.9 CALM 0 0 0 0 1017.4 1017.2 27.0
17/09:00pm 17.9 19.6 16.2 90 1.0 ENE 2 4 1 2 1016.3 1016.1 27.0
17/08:30pm 18.1 19.8 16.1 88 1.2 SSW 2 6 1 3 1015.2 1015.0 27.0
17/08:00pm 18.3 19.0 16.1 87 1.3 NW 7 15 4 8 1014.3 1014.1 27.0
17/07:30pm 17.9 19.4 16.6 92 0.8 NNW 4 7 2 4 1014.5 1014.3 27.0
17/07:00pm 17.8 19.5 16.3 91 0.9 NNW 2 6 1 3 1015.4 1015.2 25.8
17/06:30pm 17.6 18.4 15.9 90 1.0 WNW 6 9 3 5 1015.9 1015.7 23.8
17/06:00pm 17.6 18.6 15.4 87 1.3 NNE 4 6 2 3 1015.0 1014.8 22.8
17/05:30pm 21.7 23.8 19.3 86 1.5 SW 7 17 4 9 1015.3 1015.1 2.2
17/05:25pm 21.8 23.9 19.0 84 1.8 SSW 6 11 3 6 1014.6 1014.4 1.6
17/05:00pm 23.7 24.1 17.2 67 4.0 NE 11 20 6 11 1012.6 1012.4 0.4
17/04:30pm 24.8 24.0 16.0 58 5.4 ENE 15 24 8 13 1012.0 1011.8 0.0
17/04:00pm 26.0 25.1 16.8 57 5.7 NE 17 26 9 14 1011.2 1010.9 0.0
17/03:30pm 25.9 25.6 16.5 56 5.8 NE 13 24 7 13 1011.8 1011.5 0.0
17/03:00pm 27.3 26.7 17.5 55 6.2 NE 17 24 9 13 1011.8 1011.5 0.0
17/02:30pm 27.5 27.2 17.4 54 6.4 NE 15 22 8 12 1012.5 1012.3 0.0
17/02:00pm 28.0 27.6 17.2 52 6.8 NE 15 26 8 14 1012.7 1012.5 0.0
17/01:30pm 27.5 27.0 16.8 52 6.7 NE 15 24 8 13 1013.0 1012.8 0.0
17/01:00pm 28.3 28.8 16.6 49 7.3 NE 9 22 5 12 1013.3 1013.1 0.0
17/12:30pm 27.8 27.7 17.0 51 6.8 NE 13 19 7 10 1014.2 1014.0 0.0
17/12:00pm 28.0 29.5 16.6 50 7.1 N 4 13 2 7 1014.5 1014.3 0.0
17/11:30am 27.7 27.9 14.7 45 7.9 NNE 7 15 4 8 1014.8 1014.6 0.0
17/11:00am 26.8 27.2 15.2 49 7.0 N 7 9 4 5 1015.4 1015.2 0.0
17/10:30am 26.7 27.0 15.1 49 7.0 N 7 13 4 7 1015.9 1015.7 0.0
17/10:00am 26.4 26.8 15.4 50 6.7 NNW 7 17 4 9 1016.2 1016.0 0.0
17/09:30am 26.1 26.5 15.2 51 6.6 NNW 7 13 4 7 1016.2 1016.0 0.0
17/09:00am 26.7 27.2 15.1 49 7.0 NE 6 15 3 8 1016.2 1016.0 0.0
17/08:30am 25.3 24.9 14.1 50 6.6 NE 9 15 5 8 1016.1 1015.9 0.0
17/08:00am 25.6 26.7 17.0 59 5.3 NE 7 15 4 8 1016.1 1015.9 0.0
17/07:30am 24.2 25.7 16.7 63 4.6 NNE 4 6 2 3 1016.3 1016.1 0.0
17/07:00am 23.0 25.5 17.2 70 3.6 CALM 0 0 0 0 1016.3 1016.1 0.0
17/06:30am 21.6 24.2 17.4 77 2.6 CALM 0 0 0 0 1015.9 1015.7 0.0
17/06:00am 20.0 22.3 16.8 82 1.9 CALM 0 0 0 0 1015.8 1015.6 0.0
17/05:30am 18.6 21.1 17.3 92 0.8 CALM 0 0 0 0 1015.3 1015.1 0.0
17/05:00am 17.8 19.9 16.3 91 0.9 CALM 0 0 0 0 1015.0 1014.8 0.0
17/04:30am 17.7 19.7 16.0 90 1.0 CALM 0 0 0 0 1014.8 1014.6 0.0
17/04:00am 18.0 20.1 16.3 90 1.0 CALM 0 0 0 0 1014.6 1014.4 0.0
17/03:30am 18.3 20.5 16.5 89 1.1 CALM 0 0 0 0 1014.6 1014.4 0.0
17/03:00am 18.5 20.8 16.7 89 1.1 CALM 0 0 0 0 1014.6 1014.4 0.0
17/02:30am 18.4 20.6 16.6 89 1.1 CALM 0 0 0 0 1014.7 1014.5 0.0
17/02:00am 18.5 20.6 16.3 87 1.3 CALM 0 0 0 0 1014.8 1014.6 0.0
17/01:30am 18.7 20.9 16.5 87 1.3 CALM 0 0 0 0 1015.1 1014.9 0.0
17/01:00am 18.9 21.2 16.7 87 1.3 CALM 0 0 0 0 1015.3 1015.1 0.0
17/12:30am 18.9 21.2 16.7 87 1.3 CALM 0 0 0 0 1015.7 1015.5 0.0
17/12:00am 18.7 20.9 16.5 87 1.3 CALM 0 0 0 0 1016.1 1015.9 0.0
 
Date/Time
EST
Temp
°C
App
Temp
°C
Dew
Point
°C
Rel
Hum
%
Delta-T
°C
Wind Press
QNH
hPa
Press
MSL
hPa
Rain since
9am
mm
Dir  Spd
km/h
Gust
km/h
Spd
kts
Gust
kts
16/11:30pm 18.8 20.7 16.6 87 1.3 SW 2 6 1 3 1016.4 1016.2 0.0
16/11:00pm 18.9 21.1 16.5 86 1.4 CALM 0 4 0 2 1016.3 1016.1 0.0
16/10:30pm 18.9 20.9 16.0 83 1.7 CALM 0 0 0 0 1016.5 1016.3 0.0
16/10:00pm 19.1 20.9 15.6 80 2.1 CALM 0 0 0 0 1016.4 1016.2 0.0
16/09:30pm 19.7 21.8 16.2 80 2.1 CALM 0 0 0 0 1016.3 1016.1 0.0
16/09:00pm 20.0 21.8 15.6 76 2.6 CALM 0 0 0 0 1016.2 1016.0 0.0
16/08:30pm 20.5 22.4 15.7 74 2.9 CALM 0 2 0 1 1015.9 1015.7 0.0
16/08:00pm 21.1 22.9 15.6 71 3.3 CALM 0 0 0 0 1015.6 1015.4 0.0
16/07:30pm 21.5 23.0 15.8 70 3.4 WNW 2 4 1 2 1015.5 1015.3 0.0
16/07:00pm 22.7 23.9 15.8 65 4.2 NNE 4 7 2 4 1015.1 1014.9 0.0
16/06:30pm 23.0 23.7 15.6 63 4.5 NE 6 9 3 5 1015.0 1014.8 0.0
16/06:00pm 23.5 23.9 15.3 60 4.9 NNE 7 13 4 7 1014.8 1014.6 0.0
16/05:30pm 24.1 23.6 14.8 56 5.5 NE 11 19 6 10 1014.6 1014.4 0.0
16/05:00pm 24.7 24.1 14.5 53 6.1 NE 11 19 6 10 1014.4 1014.2 0.0
16/04:30pm 25.4 24.2 13.9 49 6.8 ENE 13 19 7 10 1014.2 1014.0 0.0
16/04:00pm 25.9 24.8 14.4 49 6.9 NE 13 19 7 10 1014.1 1013.9 0.0
16/03:30pm 26.1 25.4 14.2 48 7.1 NE 11 17 6 9 1014.0 1013.8 0.0

Other Formats:

Comma delimited format used in spreadsheet applications
http://www.bom.gov.au/fwo/IDQ60801/IDQ60801.95572.axf

JavaScript Object Notation format (JSON) in row-major order
http://www.bom.gov.au/fwo/IDQ60801/IDQ60801.95572.json